sensor_id;sensor_type;location;lat;lon;timestamp;P1;durP1;ratioP1;P2;durP2;ratioP2
37805;SDS011;25082;50.870;0.022;2022-10-22T00:01:13;12.43;;;3.22;;
37805;SDS011;25082;50.870;0.022;2022-10-22T00:03:39;8.13;;;2.80;;
37805;SDS011;25082;50.870;0.022;2022-10-22T00:06:05;10.70;;;2.70;;
37805;SDS011;25082;50.870;0.022;2022-10-22T00:08:31;10.32;;;2.83;;
37805;SDS011;25082;50.870;0.022;2022-10-22T00:10:57;10.52;;;2.83;;
37805;SDS011;25082;50.870;0.022;2022-10-22T00:13:23;11.00;;;2.55;;
37805;SDS011;25082;50.870;0.022;2022-10-22T00:15:49;9.60;;;2.78;;
37805;SDS011;25082;50.870;0.022;2022-10-22T00:18:14;12.32;;;3.35;;
37805;SDS011;25082;50.870;0.022;2022-10-22T00:20:40;12.13;;;3.33;;
37805;SDS011;25082;50.870;0.022;2022-10-22T00:23:06;13.35;;;2.92;;
37805;SDS011;25082;50.870;0.022;2022-10-22T00:25:33;8.43;;;2.60;;
37805;SDS011;25082;50.870;0.022;2022-10-22T00:28:00;11.55;;;3.17;;
37805;SDS011;25082;50.870;0.022;2022-10-22T00:30:26;8.30;;;2.72;;
37805;SDS011;25082;50.870;0.022;2022-10-22T00:32:52;8.82;;;2.85;;
37805;SDS011;25082;50.870;0.022;2022-10-22T00:35:18;7.72;;;2.72;;
37805;SDS011;25082;50.870;0.022;2022-10-22T00:37:43;12.10;;;3.08;;
37805;SDS011;25082;50.870;0.022;2022-10-22T00:40:09;11.38;;;2.67;;
37805;SDS011;25082;50.870;0.022;2022-10-22T00:42:36;7.20;;;2.25;;
37805;SDS011;25082;50.870;0.022;2022-10-22T00:47:35;9.93;;;2.58;;
37805;SDS011;25082;50.870;0.022;2022-10-22T00:50:04;9.75;;;2.13;;
37805;SDS011;25082;50.870;0.022;2022-10-22T00:52:39;7.07;;;2.20;;
37805;SDS011;25082;50.870;0.022;2022-10-22T00:55:06;11.07;;;2.42;;
37805;SDS011;25082;50.870;0.022;2022-10-22T00:57:32;8.90;;;2.35;;
37805;SDS011;25082;50.870;0.022;2022-10-22T01:00:00;11.18;;;3.08;;
37805;SDS011;25082;50.870;0.022;2022-10-22T01:02:26;9.45;;;2.83;;
37805;SDS011;25082;50.870;0.022;2022-10-22T01:04:52;8.90;;;2.63;;
37805;SDS011;25082;50.870;0.022;2022-10-22T01:07:19;10.38;;;2.33;;
37805;SDS011;25082;50.870;0.022;2022-10-22T01:09:58;7.60;;;1.95;;
37805;SDS011;25082;50.870;0.022;2022-10-22T01:13:21;6.85;;;1.88;;
37805;SDS011;25082;50.870;0.022;2022-10-22T01:15:34;13.05;;;2.80;;
37805;SDS011;25082;50.870;0.022;2022-10-22T01:18:19;9.73;;;2.35;;
37805;SDS011;25082;50.870;0.022;2022-10-22T01:29:12;7.47;;;2.60;;
37805;SDS011;25082;50.870;0.022;2022-10-22T01:31:54;6.78;;;1.98;;
37805;SDS011;25082;50.870;0.022;2022-10-22T01:36:50;8.18;;;2.00;;
37805;SDS011;25082;50.870;0.022;2022-10-22T01:39:16;10.35;;;2.30;;
37805;SDS011;25082;50.870;0.022;2022-10-22T01:41:44;6.85;;;1.95;;
37805;SDS011;25082;50.870;0.022;2022-10-22T01:44:23;9.00;;;2.03;;
37805;SDS011;25082;50.870;0.022;2022-10-22T01:46:50;8.65;;;2.08;;
37805;SDS011;25082;50.870;0.022;2022-10-22T01:49:27;7.82;;;2.10;;
37805;SDS011;25082;50.870;0.022;2022-10-22T01:52:09;7.43;;;2.22;;
37805;SDS011;25082;50.870;0.022;2022-10-22T01:54:40;4.88;;;1.83;;
37805;SDS011;25082;50.870;0.022;2022-10-22T02:00:07;7.05;;;1.98;;
37805;SDS011;25082;50.870;0.022;2022-10-22T02:08:18;7.82;;;2.03;;
37805;SDS011;25082;50.870;0.022;2022-10-22T02:10:47;8.65;;;2.20;;
37805;SDS011;25082;50.870;0.022;2022-10-22T02:13:15;8.82;;;2.20;;
37805;SDS011;25082;50.870;0.022;2022-10-22T02:15:45;10.65;;;2.80;;
37805;SDS011;25082;50.870;0.022;2022-10-22T02:18:13;4.95;;;1.45;;
37805;SDS011;25082;50.870;0.022;2022-10-22T02:20:40;6.47;;;1.70;;
37805;SDS011;25082;50.870;0.022;2022-10-22T02:23:06;8.00;;;1.90;;
37805;SDS011;25082;50.870;0.022;2022-10-22T02:25:35;9.35;;;2.50;;
37805;SDS011;25082;50.870;0.022;2022-10-22T02:28:12;9.05;;;2.50;;
37805;SDS011;25082;50.870;0.022;2022-10-22T02:30:47;5.90;;;1.58;;
37805;SDS011;25082;50.870;0.022;2022-10-22T02:33:23;6.22;;;1.73;;
37805;SDS011;25082;50.870;0.022;2022-10-22T02:35:55;6.65;;;1.80;;
37805;SDS011;25082;50.870;0.022;2022-10-22T02:38:23;7.00;;;1.75;;
37805;SDS011;25082;50.870;0.022;2022-10-22T02:40:51;10.40;;;2.20;;
37805;SDS011;25082;50.870;0.022;2022-10-22T02:43:17;8.43;;;1.77;;
37805;SDS011;25082;50.870;0.022;2022-10-22T02:45:44;8.93;;;1.90;;
37805;SDS011;25082;50.870;0.022;2022-10-22T02:48:10;8.82;;;1.58;;
37805;SDS011;25082;50.870;0.022;2022-10-22T02:50:36;7.88;;;2.45;;
37805;SDS011;25082;50.870;0.022;2022-10-22T02:53:02;9.88;;;2.10;;
37805;SDS011;25082;50.870;0.022;2022-10-22T02:55:28;6.95;;;1.80;;
37805;SDS011;25082;50.870;0.022;2022-10-22T02:57:53;9.23;;;2.30;;
37805;SDS011;25082;50.870;0.022;2022-10-22T03:00:19;8.65;;;1.80;;
37805;SDS011;25082;50.870;0.022;2022-10-22T03:02:45;6.82;;;1.60;;
37805;SDS011;25082;50.870;0.022;2022-10-22T03:05:11;8.77;;;2.10;;
37805;SDS011;25082;50.870;0.022;2022-10-22T03:07:37;7.32;;;1.90;;
37805;SDS011;25082;50.870;0.022;2022-10-22T03:10:03;6.88;;;1.88;;
37805;SDS011;25082;50.870;0.022;2022-10-22T03:12:29;4.82;;;1.52;;
37805;SDS011;25082;50.870;0.022;2022-10-22T03:14:55;6.57;;;1.35;;
37805;SDS011;25082;50.870;0.022;2022-10-22T03:17:21;8.55;;;1.98;;
37805;SDS011;25082;50.870;0.022;2022-10-22T03:19:46;5.97;;;1.98;;
37805;SDS011;25082;50.870;0.022;2022-10-22T03:22:22;6.50;;;1.70;;
37805;SDS011;25082;50.870;0.022;2022-10-22T03:24:52;6.60;;;1.35;;
37805;SDS011;25082;50.870;0.022;2022-10-22T03:27:22;6.53;;;1.90;;
37805;SDS011;25082;50.870;0.022;2022-10-22T03:29:49;10.80;;;2.45;;
37805;SDS011;25082;50.870;0.022;2022-10-22T03:32:16;9.30;;;2.13;;
37805;SDS011;25082;50.870;0.022;2022-10-22T03:34:42;6.25;;;1.83;;
37805;SDS011;25082;50.870;0.022;2022-10-22T03:37:08;8.18;;;1.73;;
37805;SDS011;25082;50.870;0.022;2022-10-22T03:39:34;7.50;;;1.50;;
37805;SDS011;25082;50.870;0.022;2022-10-22T03:42:01;6.15;;;1.80;;
37805;SDS011;25082;50.870;0.022;2022-10-22T03:44:28;6.25;;;2.15;;
37805;SDS011;25082;50.870;0.022;2022-10-22T03:46:54;4.45;;;1.63;;
37805;SDS011;25082;50.870;0.022;2022-10-22T03:49:20;7.28;;;1.75;;
37805;SDS011;25082;50.870;0.022;2022-10-22T03:51:45;6.43;;;1.83;;
37805;SDS011;25082;50.870;0.022;2022-10-22T03:54:11;6.97;;;1.80;;
37805;SDS011;25082;50.870;0.022;2022-10-22T03:56:37;6.88;;;1.60;;
37805;SDS011;25082;50.870;0.022;2022-10-22T03:59:03;6.90;;;1.80;;
37805;SDS011;25082;50.870;0.022;2022-10-22T04:01:29;6.20;;;1.63;;
37805;SDS011;25082;50.870;0.022;2022-10-22T04:03:55;8.13;;;2.22;;
37805;SDS011;25082;50.870;0.022;2022-10-22T04:06:21;8.52;;;2.00;;
37805;SDS011;25082;50.870;0.022;2022-10-22T04:08:47;9.35;;;1.98;;
37805;SDS011;25082;50.870;0.022;2022-10-22T04:11:13;6.68;;;1.83;;
37805;SDS011;25082;50.870;0.022;2022-10-22T04:13:40;4.70;;;1.45;;
37805;SDS011;25082;50.870;0.022;2022-10-22T04:16:07;11.25;;;2.03;;
37805;SDS011;25082;50.870;0.022;2022-10-22T04:18:41;7.93;;;1.70;;
37805;SDS011;25082;50.870;0.022;2022-10-22T04:21:08;6.35;;;1.45;;
37805;SDS011;25082;50.870;0.022;2022-10-22T04:23:35;5.97;;;1.63;;
37805;SDS011;25082;50.870;0.022;2022-10-22T04:26:02;5.80;;;1.98;;
37805;SDS011;25082;50.870;0.022;2022-10-22T04:28:30;9.10;;;1.77;;
37805;SDS011;25082;50.870;0.022;2022-10-22T04:30:56;6.88;;;1.48;;
37805;SDS011;25082;50.870;0.022;2022-10-22T04:33:21;7.00;;;2.08;;
37805;SDS011;25082;50.870;0.022;2022-10-22T04:35:47;9.68;;;1.95;;
37805;SDS011;25082;50.870;0.022;2022-10-22T04:38:13;8.95;;;2.92;;
37805;SDS011;25082;50.870;0.022;2022-10-22T04:40:39;6.78;;;2.08;;
37805;SDS011;25082;50.870;0.022;2022-10-22T04:43:05;12.13;;;2.85;;
37805;SDS011;25082;50.870;0.022;2022-10-22T04:45:31;8.20;;;1.80;;
37805;SDS011;25082;50.870;0.022;2022-10-22T04:47:58;8.18;;;2.15;;
37805;SDS011;25082;50.870;0.022;2022-10-22T04:50:24;7.20;;;1.85;;
37805;SDS011;25082;50.870;0.022;2022-10-22T04:52:50;8.02;;;2.63;;
37805;SDS011;25082;50.870;0.022;2022-10-22T04:55:15;6.85;;;1.90;;
37805;SDS011;25082;50.870;0.022;2022-10-22T04:57:41;8.93;;;1.95;;
37805;SDS011;25082;50.870;0.022;2022-10-22T05:00:07;6.65;;;1.98;;
37805;SDS011;25082;50.870;0.022;2022-10-22T05:02:33;9.68;;;2.05;;
37805;SDS011;25082;50.870;0.022;2022-10-22T05:04:59;8.15;;;1.80;;
37805;SDS011;25082;50.870;0.022;2022-10-22T05:07:24;8.52;;;2.40;;
37805;SDS011;25082;50.870;0.022;2022-10-22T05:09:50;10.88;;;2.35;;
37805;SDS011;25082;50.870;0.022;2022-10-22T05:12:17;9.23;;;2.63;;
37805;SDS011;25082;50.870;0.022;2022-10-22T05:14:42;5.88;;;1.60;;
37805;SDS011;25082;50.870;0.022;2022-10-22T05:17:08;7.93;;;2.45;;
37805;SDS011;25082;50.870;0.022;2022-10-22T05:19:34;9.82;;;2.50;;
37805;SDS011;25082;50.870;0.022;2022-10-22T05:22:00;9.50;;;2.13;;
37805;SDS011;25082;50.870;0.022;2022-10-22T05:24:27;8.13;;;1.88;;
37805;SDS011;25082;50.870;0.022;2022-10-22T05:26:55;8.60;;;2.53;;
37805;SDS011;25082;50.870;0.022;2022-10-22T05:29:22;10.35;;;2.33;;
37805;SDS011;25082;50.870;0.022;2022-10-22T05:31:48;9.65;;;2.50;;
37805;SDS011;25082;50.870;0.022;2022-10-22T05:34:15;5.85;;;1.70;;
37805;SDS011;25082;50.870;0.022;2022-10-22T05:36:41;7.30;;;1.63;;
37805;SDS011;25082;50.870;0.022;2022-10-22T05:39:07;7.55;;;2.20;;
37805;SDS011;25082;50.870;0.022;2022-10-22T05:41:33;6.60;;;1.85;;
37805;SDS011;25082;50.870;0.022;2022-10-22T05:44:02;6.25;;;2.00;;
37805;SDS011;25082;50.870;0.022;2022-10-22T05:46:31;6.93;;;2.22;;
37805;SDS011;25082;50.870;0.022;2022-10-22T05:49:00;10.82;;;2.58;;
37805;SDS011;25082;50.870;0.022;2022-10-22T05:51:27;6.75;;;2.28;;
37805;SDS011;25082;50.870;0.022;2022-10-22T05:53:55;7.35;;;2.17;;
37805;SDS011;25082;50.870;0.022;2022-10-22T05:56:23;5.95;;;1.55;;
37805;SDS011;25082;50.870;0.022;2022-10-22T05:58:49;6.40;;;1.58;;
37805;SDS011;25082;50.870;0.022;2022-10-22T06:01:19;4.90;;;1.77;;
37805;SDS011;25082;50.870;0.022;2022-10-22T06:03:47;6.70;;;2.00;;
37805;SDS011;25082;50.870;0.022;2022-10-22T06:06:17;5.28;;;1.88;;
37805;SDS011;25082;50.870;0.022;2022-10-22T06:08:51;6.53;;;1.98;;
37805;SDS011;25082;50.870;0.022;2022-10-22T06:11:19;6.88;;;2.10;;
37805;SDS011;25082;50.870;0.022;2022-10-22T06:13:47;5.88;;;1.90;;
37805;SDS011;25082;50.870;0.022;2022-10-22T06:16:14;10.30;;;2.60;;
37805;SDS011;25082;50.870;0.022;2022-10-22T06:18:40;7.63;;;2.17;;
37805;SDS011;25082;50.870;0.022;2022-10-22T06:21:06;6.78;;;1.48;;
37805;SDS011;25082;50.870;0.022;2022-10-22T06:23:34;5.15;;;1.75;;
37805;SDS011;25082;50.870;0.022;2022-10-22T06:26:00;5.15;;;1.63;;
37805;SDS011;25082;50.870;0.022;2022-10-22T06:28:26;5.75;;;1.95;;
37805;SDS011;25082;50.870;0.022;2022-10-22T06:30:52;8.82;;;1.92;;
37805;SDS011;25082;50.870;0.022;2022-10-22T06:33:18;6.20;;;1.75;;
37805;SDS011;25082;50.870;0.022;2022-10-22T06:35:44;9.02;;;1.55;;
37805;SDS011;25082;50.870;0.022;2022-10-22T06:38:10;8.75;;;1.98;;
37805;SDS011;25082;50.870;0.022;2022-10-22T06:40:35;9.05;;;2.22;;
37805;SDS011;25082;50.870;0.022;2022-10-22T06:43:01;10.13;;;2.13;;
37805;SDS011;25082;50.870;0.022;2022-10-22T06:45:27;6.70;;;1.90;;
37805;SDS011;25082;50.870;0.022;2022-10-22T06:47:53;12.73;;;1.98;;
37805;SDS011;25082;50.870;0.022;2022-10-22T06:50:20;5.75;;;2.00;;
37805;SDS011;25082;50.870;0.022;2022-10-22T06:52:45;7.13;;;2.30;;
37805;SDS011;25082;50.870;0.022;2022-10-22T06:55:11;7.07;;;1.80;;
37805;SDS011;25082;50.870;0.022;2022-10-22T06:57:37;5.63;;;1.52;;
37805;SDS011;25082;50.870;0.022;2022-10-22T07:00:04;7.10;;;1.85;;
37805;SDS011;25082;50.870;0.022;2022-10-22T07:02:31;7.97;;;1.70;;
37805;SDS011;25082;50.870;0.022;2022-10-22T07:04:57;6.20;;;1.67;;
37805;SDS011;25082;50.870;0.022;2022-10-22T07:07:22;6.78;;;1.77;;
37805;SDS011;25082;50.870;0.022;2022-10-22T07:09:48;5.78;;;1.85;;
37805;SDS011;25082;50.870;0.022;2022-10-22T07:12:14;7.00;;;1.98;;
37805;SDS011;25082;50.870;0.022;2022-10-22T07:14:40;7.25;;;1.85;;
37805;SDS011;25082;50.870;0.022;2022-10-22T07:17:06;6.63;;;1.60;;
37805;SDS011;25082;50.870;0.022;2022-10-22T07:19:32;7.50;;;2.20;;
37805;SDS011;25082;50.870;0.022;2022-10-22T07:21:58;4.65;;;1.45;;
37805;SDS011;25082;50.870;0.022;2022-10-22T07:24:24;6.15;;;1.90;;
37805;SDS011;25082;50.870;0.022;2022-10-22T07:26:50;11.25;;;1.92;;
37805;SDS011;25082;50.870;0.022;2022-10-22T07:29:16;9.48;;;1.80;;
37805;SDS011;25082;50.870;0.022;2022-10-22T07:31:42;7.28;;;2.03;;
37805;SDS011;25082;50.870;0.022;2022-10-22T07:34:08;4.50;;;1.42;;
37805;SDS011;25082;50.870;0.022;2022-10-22T07:36:34;6.93;;;1.83;;
37805;SDS011;25082;50.870;0.022;2022-10-22T07:39:00;4.20;;;1.60;;
37805;SDS011;25082;50.870;0.022;2022-10-22T07:41:26;6.07;;;1.75;;
37805;SDS011;25082;50.870;0.022;2022-10-22T07:43:54;5.43;;;1.48;;
37805;SDS011;25082;50.870;0.022;2022-10-22T07:46:20;7.80;;;2.00;;
37805;SDS011;25082;50.870;0.022;2022-10-22T07:48:47;8.93;;;2.08;;
37805;SDS011;25082;50.870;0.022;2022-10-22T07:51:13;7.90;;;2.25;;
37805;SDS011;25082;50.870;0.022;2022-10-22T07:53:39;5.88;;;1.90;;
37805;SDS011;25082;50.870;0.022;2022-10-22T07:56:05;7.45;;;1.60;;
37805;SDS011;25082;50.870;0.022;2022-10-22T07:58:32;6.82;;;1.42;;
37805;SDS011;25082;50.870;0.022;2022-10-22T08:00:58;8.88;;;2.25;;
37805;SDS011;25082;50.870;0.022;2022-10-22T08:03:25;5.13;;;1.25;;
37805;SDS011;25082;50.870;0.022;2022-10-22T08:05:52;7.88;;;1.98;;
37805;SDS011;25082;50.870;0.022;2022-10-22T08:08:19;6.75;;;1.80;;
37805;SDS011;25082;50.870;0.022;2022-10-22T08:10:45;5.05;;;1.67;;
37805;SDS011;25082;50.870;0.022;2022-10-22T08:13:12;9.52;;;1.85;;
37805;SDS011;25082;50.870;0.022;2022-10-22T08:15:40;6.20;;;1.73;;
37805;SDS011;25082;50.870;0.022;2022-10-22T08:18:06;8.40;;;2.17;;
37805;SDS011;25082;50.870;0.022;2022-10-22T08:20:33;6.47;;;1.98;;
37805;SDS011;25082;50.870;0.022;2022-10-22T08:22:58;9.10;;;2.03;;
37805;SDS011;25082;50.870;0.022;2022-10-22T08:25:24;6.07;;;1.48;;
37805;SDS011;25082;50.870;0.022;2022-10-22T08:27:50;10.77;;;2.03;;
37805;SDS011;25082;50.870;0.022;2022-10-22T08:30:16;7.40;;;1.60;;
37805;SDS011;25082;50.870;0.022;2022-10-22T08:32:42;3.45;;;1.00;;
37805;SDS011;25082;50.870;0.022;2022-10-22T08:35:08;8.00;;;1.33;;
37805;SDS011;25082;50.870;0.022;2022-10-22T08:37:34;7.32;;;2.03;;
37805;SDS011;25082;50.870;0.022;2022-10-22T08:40:00;8.32;;;2.10;;
37805;SDS011;25082;50.870;0.022;2022-10-22T08:47:53;8.15;;;1.98;;
37805;SDS011;25082;50.870;0.022;2022-10-22T08:53:00;7.90;;;1.90;;
37805;SDS011;25082;50.870;0.022;2022-10-22T08:55:30;7.90;;;1.73;;
37805;SDS011;25082;50.870;0.022;2022-10-22T09:00:51;3.95;;;1.40;;
37805;SDS011;25082;50.870;0.022;2022-10-22T09:03:29;9.60;;;1.85;;
37805;SDS011;25082;50.870;0.022;2022-10-22T09:06:25;24.52;;;3.17;;
37805;SDS011;25082;50.870;0.022;2022-10-22T09:08:53;13.50;;;2.75;;
37805;SDS011;25082;50.870;0.022;2022-10-22T09:11:23;10.75;;;2.50;;
37805;SDS011;25082;50.870;0.022;2022-10-22T09:13:49;9.55;;;1.77;;
37805;SDS011;25082;50.870;0.022;2022-10-22T09:16:21;9.63;;;2.25;;
37805;SDS011;25082;50.870;0.022;2022-10-22T09:21:56;11.57;;;3.10;;
37805;SDS011;25082;50.870;0.022;2022-10-22T09:24:37;6.38;;;1.98;;
37805;SDS011;25082;50.870;0.022;2022-10-22T09:27:15;11.25;;;2.33;;
37805;SDS011;25082;50.870;0.022;2022-10-22T09:29:43;8.55;;;1.92;;
37805;SDS011;25082;50.870;0.022;2022-10-22T09:32:10;9.05;;;2.08;;
37805;SDS011;25082;50.870;0.022;2022-10-22T09:34:36;11.68;;;2.58;;
37805;SDS011;25082;50.870;0.022;2022-10-22T09:37:03;8.88;;;2.25;;
37805;SDS011;25082;50.870;0.022;2022-10-22T09:39:32;6.38;;;1.52;;
37805;SDS011;25082;50.870;0.022;2022-10-22T09:41:58;7.03;;;2.13;;
37805;SDS011;25082;50.870;0.022;2022-10-22T09:44:24;7.80;;;1.95;;
37805;SDS011;25082;50.870;0.022;2022-10-22T09:46:50;3.80;;;1.35;;
37805;SDS011;25082;50.870;0.022;2022-10-22T09:49:17;6.90;;;2.33;;
37805;SDS011;25082;50.870;0.022;2022-10-22T09:54:18;10.43;;;2.17;;
37805;SDS011;25082;50.870;0.022;2022-10-22T09:56:49;8.07;;;1.95;;
37805;SDS011;25082;50.870;0.022;2022-10-22T09:59:27;7.03;;;1.55;;
37805;SDS011;25082;50.870;0.022;2022-10-22T10:02:04;6.72;;;1.42;;
37805;SDS011;25082;50.870;0.022;2022-10-22T10:04:48;9.63;;;2.22;;
37805;SDS011;25082;50.870;0.022;2022-10-22T10:07:16;6.05;;;1.98;;
37805;SDS011;25082;50.870;0.022;2022-10-22T10:09:47;11.10;;;2.03;;
37805;SDS011;25082;50.870;0.022;2022-10-22T10:20:52;4.85;;;1.40;;
37805;SDS011;25082;50.870;0.022;2022-10-22T10:26:05;8.00;;;1.73;;
37805;SDS011;25082;50.870;0.022;2022-10-22T10:28:48;5.47;;;1.42;;
37805;SDS011;25082;50.870;0.022;2022-10-22T10:32:02;3.75;;;0.98;;
37805;SDS011;25082;50.870;0.022;2022-10-22T10:37:28;5.35;;;1.40;;
37805;SDS011;25082;50.870;0.022;2022-10-22T10:53:33;10.88;;;2.28;;
37805;SDS011;25082;50.870;0.022;2022-10-22T10:59:02;5.68;;;1.13;;
37805;SDS011;25082;50.870;0.022;2022-10-22T11:07:51;4.72;;;1.23;;
37805;SDS011;25082;50.870;0.022;2022-10-22T11:12:54;6.63;;;1.70;;
37805;SDS011;25082;50.870;0.022;2022-10-22T11:15:28;4.55;;;1.10;;
37805;SDS011;25082;50.870;0.022;2022-10-22T11:18:11;6.40;;;1.95;;
37805;SDS011;25082;50.870;0.022;2022-10-22T11:20:53;8.00;;;1.77;;
37805;SDS011;25082;50.870;0.022;2022-10-22T11:23:24;6.15;;;1.58;;
37805;SDS011;25082;50.870;0.022;2022-10-22T11:25:57;8.75;;;1.70;;
37805;SDS011;25082;50.870;0.022;2022-10-22T11:31:01;6.13;;;1.77;;
37805;SDS011;25082;50.870;0.022;2022-10-22T11:33:38;4.72;;;1.52;;
37805;SDS011;25082;50.870;0.022;2022-10-22T11:36:15;8.43;;;2.15;;
37805;SDS011;25082;50.870;0.022;2022-10-22T11:38:45;14.90;;;1.92;;
37805;SDS011;25082;50.870;0.022;2022-10-22T11:41:12;9.02;;;1.73;;
37805;SDS011;25082;50.870;0.022;2022-10-22T11:47:08;8.00;;;2.47;;
37805;SDS011;25082;50.870;0.022;2022-10-22T11:49:43;6.57;;;1.45;;
37805;SDS011;25082;50.870;0.022;2022-10-22T11:52:37;4.88;;;1.33;;
37805;SDS011;25082;50.870;0.022;2022-10-22T11:55:31;9.65;;;2.22;;
37805;SDS011;25082;50.870;0.022;2022-10-22T11:58:01;12.77;;;2.10;;
37805;SDS011;25082;50.870;0.022;2022-10-22T12:00:47;6.72;;;1.27;;
37805;SDS011;25082;50.870;0.022;2022-10-22T12:03:17;7.82;;;1.60;;
37805;SDS011;25082;50.870;0.022;2022-10-22T12:16:34;4.78;;;1.48;;
37805;SDS011;25082;50.870;0.022;2022-10-22T12:19:11;8.73;;;2.10;;
37805;SDS011;25082;50.870;0.022;2022-10-22T12:21:41;9.68;;;1.52;;
37805;SDS011;25082;50.870;0.022;2022-10-22T12:24:13;4.82;;;1.17;;
37805;SDS011;25082;50.870;0.022;2022-10-22T12:26:41;5.63;;;1.75;;
37805;SDS011;25082;50.870;0.022;2022-10-22T12:29:11;5.20;;;1.35;;
37805;SDS011;25082;50.870;0.022;2022-10-22T12:31:39;6.38;;;1.92;;
37805;SDS011;25082;50.870;0.022;2022-10-22T12:34:16;8.85;;;1.67;;
37805;SDS011;25082;50.870;0.022;2022-10-22T12:36:43;3.67;;;1.33;;
37805;SDS011;25082;50.870;0.022;2022-10-22T12:39:15;4.40;;;1.25;;
37805;SDS011;25082;50.870;0.022;2022-10-22T12:41:46;6.50;;;2.03;;
37805;SDS011;25082;50.870;0.022;2022-10-22T12:44:13;6.00;;;1.65;;
37805;SDS011;25082;50.870;0.022;2022-10-22T12:46:41;5.53;;;2.08;;
37805;SDS011;25082;50.870;0.022;2022-10-22T12:49:51;12.60;;;2.13;;
37805;SDS011;25082;50.870;0.022;2022-10-22T12:52:04;5.97;;;1.48;;
37805;SDS011;25082;50.870;0.022;2022-10-22T12:54:32;8.77;;;1.75;;
37805;SDS011;25082;50.870;0.022;2022-10-22T12:56:59;7.85;;;1.38;;
37805;SDS011;25082;50.870;0.022;2022-10-22T13:01:58;7.68;;;1.38;;
37805;SDS011;25082;50.870;0.022;2022-10-22T13:04:31;7.80;;;2.10;;
37805;SDS011;25082;50.870;0.022;2022-10-22T13:07:18;8.13;;;1.85;;
37805;SDS011;25082;50.870;0.022;2022-10-22T13:09:46;4.55;;;1.52;;
37805;SDS011;25082;50.870;0.022;2022-10-22T13:12:24;6.35;;;1.52;;
37805;SDS011;25082;50.870;0.022;2022-10-22T13:14:51;9.27;;;1.90;;
37805;SDS011;25082;50.870;0.022;2022-10-22T13:17:37;6.22;;;1.55;;
37805;SDS011;25082;50.870;0.022;2022-10-22T13:20:16;6.13;;;1.50;;
37805;SDS011;25082;50.870;0.022;2022-10-22T13:22:56;6.60;;;1.95;;
37805;SDS011;25082;50.870;0.022;2022-10-22T13:30:49;7.15;;;1.77;;
37805;SDS011;25082;50.870;0.022;2022-10-22T13:35:53;4.60;;;1.42;;
37805;SDS011;25082;50.870;0.022;2022-10-22T13:38:21;5.45;;;1.88;;
37805;SDS011;25082;50.870;0.022;2022-10-22T13:40:48;10.52;;;2.10;;
37805;SDS011;25082;50.870;0.022;2022-10-22T13:43:14;3.78;;;1.52;;
37805;SDS011;25082;50.870;0.022;2022-10-22T13:45:41;6.53;;;1.65;;
37805;SDS011;25082;50.870;0.022;2022-10-22T13:48:12;5.60;;;1.33;;
37805;SDS011;25082;50.870;0.022;2022-10-22T13:50:40;7.95;;;2.03;;
37805;SDS011;25082;50.870;0.022;2022-10-22T13:53:08;7.18;;;2.22;;
37805;SDS011;25082;50.870;0.022;2022-10-22T13:55:49;9.65;;;1.85;;
37805;SDS011;25082;50.870;0.022;2022-10-22T13:58:16;9.10;;;2.15;;
37805;SDS011;25082;50.870;0.022;2022-10-22T14:00:50;11.73;;;1.90;;
37805;SDS011;25082;50.870;0.022;2022-10-22T14:03:22;14.75;;;3.42;;
37805;SDS011;25082;50.870;0.022;2022-10-22T14:05:53;8.60;;;2.17;;
37805;SDS011;25082;50.870;0.022;2022-10-22T14:08:19;6.05;;;2.17;;
37805;SDS011;25082;50.870;0.022;2022-10-22T14:10:46;6.53;;;2.08;;
37805;SDS011;25082;50.870;0.022;2022-10-22T14:13:13;7.53;;;2.53;;
37805;SDS011;25082;50.870;0.022;2022-10-22T14:15:41;9.63;;;2.13;;
37805;SDS011;25082;50.870;0.022;2022-10-22T14:18:10;8.77;;;2.30;;
37805;SDS011;25082;50.870;0.022;2022-10-22T14:20:40;9.95;;;2.33;;
37805;SDS011;25082;50.870;0.022;2022-10-22T14:23:18;10.23;;;2.60;;
37805;SDS011;25082;50.870;0.022;2022-10-22T14:25:44;6.00;;;1.63;;
37805;SDS011;25082;50.870;0.022;2022-10-22T14:28:10;8.48;;;2.47;;
37805;SDS011;25082;50.870;0.022;2022-10-22T14:30:36;6.78;;;1.98;;
37805;SDS011;25082;50.870;0.022;2022-10-22T14:33:17;8.32;;;1.98;;
37805;SDS011;25082;50.870;0.022;2022-10-22T14:35:50;8.57;;;2.85;;
37805;SDS011;25082;50.870;0.022;2022-10-22T14:38:16;10.98;;;2.38;;
37805;SDS011;25082;50.870;0.022;2022-10-22T14:40:42;8.23;;;2.65;;
37805;SDS011;25082;50.870;0.022;2022-10-22T14:45:40;8.00;;;2.22;;
37805;SDS011;25082;50.870;0.022;2022-10-22T14:48:06;5.40;;;1.60;;
37805;SDS011;25082;50.870;0.022;2022-10-22T14:50:32;7.90;;;2.13;;
37805;SDS011;25082;50.870;0.022;2022-10-22T14:52:58;7.05;;;1.73;;
37805;SDS011;25082;50.870;0.022;2022-10-22T14:55:23;4.55;;;2.03;;
37805;SDS011;25082;50.870;0.022;2022-10-22T14:57:51;6.88;;;2.58;;
37805;SDS011;25082;50.870;0.022;2022-10-22T15:00:17;12.93;;;3.97;;
37805;SDS011;25082;50.870;0.022;2022-10-22T15:02:44;13.95;;;2.88;;
37805;SDS011;25082;50.870;0.022;2022-10-22T15:05:11;18.65;;;4.25;;
37805;SDS011;25082;50.870;0.022;2022-10-22T15:07:37;21.95;;;5.38;;
37805;SDS011;25082;50.870;0.022;2022-10-22T15:10:03;16.63;;;4.38;;
37805;SDS011;25082;50.870;0.022;2022-10-22T15:12:30;23.80;;;5.07;;
37805;SDS011;25082;50.870;0.022;2022-10-22T15:14:56;20.38;;;4.68;;
37805;SDS011;25082;50.870;0.022;2022-10-22T15:17:22;21.95;;;5.15;;
37805;SDS011;25082;50.870;0.022;2022-10-22T15:19:48;25.90;;;5.20;;
37805;SDS011;25082;50.870;0.022;2022-10-22T15:22:13;18.25;;;4.45;;
37805;SDS011;25082;50.870;0.022;2022-10-22T15:24:40;14.05;;;4.82;;
37805;SDS011;25082;50.870;0.022;2022-10-22T15:27:12;16.15;;;4.40;;
37805;SDS011;25082;50.870;0.022;2022-10-22T15:29:38;19.23;;;3.78;;
37805;SDS011;25082;50.870;0.022;2022-10-22T15:32:06;19.20;;;3.70;;
37805;SDS011;25082;50.870;0.022;2022-10-22T15:34:35;17.25;;;3.97;;
37805;SDS011;25082;50.870;0.022;2022-10-22T15:37:03;11.75;;;3.50;;
37805;SDS011;25082;50.870;0.022;2022-10-22T15:39:31;13.20;;;3.83;;
37805;SDS011;25082;50.870;0.022;2022-10-22T15:41:57;12.10;;;3.90;;
37805;SDS011;25082;50.870;0.022;2022-10-22T15:44:27;13.15;;;3.38;;
37805;SDS011;25082;50.870;0.022;2022-10-22T15:46:54;15.50;;;3.13;;
37805;SDS011;25082;50.870;0.022;2022-10-22T15:49:21;11.68;;;3.60;;
37805;SDS011;25082;50.870;0.022;2022-10-22T15:51:47;13.88;;;3.60;;
37805;SDS011;25082;50.870;0.022;2022-10-22T15:54:15;8.23;;;2.75;;
37805;SDS011;25082;50.870;0.022;2022-10-22T15:56:43;11.05;;;2.70;;
37805;SDS011;25082;50.870;0.022;2022-10-22T15:59:10;7.78;;;3.08;;
37805;SDS011;25082;50.870;0.022;2022-10-22T16:01:37;7.93;;;2.53;;
37805;SDS011;25082;50.870;0.022;2022-10-22T16:04:03;12.65;;;2.88;;
37805;SDS011;25082;50.870;0.022;2022-10-22T16:09:00;10.05;;;2.72;;
37805;SDS011;25082;50.870;0.022;2022-10-22T16:11:28;11.85;;;3.28;;
37805;SDS011;25082;50.870;0.022;2022-10-22T16:13:55;9.63;;;3.13;;
37805;SDS011;25082;50.870;0.022;2022-10-22T16:16:23;8.15;;;2.45;;
37805;SDS011;25082;50.870;0.022;2022-10-22T16:18:50;10.63;;;2.85;;
37805;SDS011;25082;50.870;0.022;2022-10-22T16:21:16;6.97;;;2.50;;
37805;SDS011;25082;50.870;0.022;2022-10-22T16:23:43;5.85;;;2.05;;
37805;SDS011;25082;50.870;0.022;2022-10-22T16:26:10;4.30;;;1.90;;
37805;SDS011;25082;50.870;0.022;2022-10-22T16:28:37;11.43;;;2.90;;
37805;SDS011;25082;50.870;0.022;2022-10-22T16:31:03;10.35;;;3.10;;
37805;SDS011;25082;50.870;0.022;2022-10-22T16:33:30;9.48;;;2.22;;
37805;SDS011;25082;50.870;0.022;2022-10-22T16:35:57;6.90;;;2.25;;
37805;SDS011;25082;50.870;0.022;2022-10-22T16:38:23;10.30;;;2.35;;
37805;SDS011;25082;50.870;0.022;2022-10-22T16:40:49;9.05;;;2.90;;
37805;SDS011;25082;50.870;0.022;2022-10-22T16:43:15;6.43;;;2.25;;
37805;SDS011;25082;50.870;0.022;2022-10-22T16:45:50;8.07;;;2.55;;